Time;durP1;ratioP1;P1;durP2;ratioP2;P2;SDS_P1;SDS_P2;PMS_P1;PMS_P2;Temp;Humidity;BMP_temperature;BMP_pressure;BME280_temperature;BME280_humidity;BME280_pressure;Samples;Min_cycle;Max_cycle;Signal;HPM_P1;HPM_P2
2022/04/14 00:01:19;;;;;;;0.00;0.00;;;;;;;;;;5094549;28;20292;-78
2022/04/14 00:03:46;;;;;;;0.10;0.10;;;;;;;;;;5098209;28;20239;-78
2022/04/14 00:06:12;;;;;;;0.10;0.10;;;;;;;;;;5093192;28;20581;-79
2022/04/14 00:08:38;;;;;;;0.10;0.10;;;;;;;;;;5100035;28;20205;-79
2022/04/14 00:11:05;;;;;;;0.10;0.10;;;;;;;;;;5091193;28;20327;-79
2022/04/14 00:13:31;;;;;;;0.10;0.10;;;;;;;;;;5101344;28;20267;-79
2022/04/14 00:15:57;;;;;;;0.10;0.10;;;;;;;;;;5088902;28;20246;-79
2022/04/14 00:18:25;;;;;;;0.10;0.10;;;;;;;;;;5103149;28;20480;-79
2022/04/14 00:20:51;;;;;;;0.10;0.10;;;;;;;;;;5087293;28;20295;-79
2022/04/14 00:23:18;;;;;;;0.10;0.10;;;;;;;;;;5104740;28;20253;-79
2022/04/14 00:25:44;;;;;;;0.10;0.10;;;;;;;;;;5085306;28;20270;-78
2022/04/14 00:28:11;;;;;;;0.10;0.10;;;;;;;;;;5106835;28;20207;-79
2022/04/14 00:30:37;;;;;;;0.10;0.10;;;;;;;;;;5083255;28;20237;-78
2022/04/14 00:33:03;;;;;;;0.03;0.03;;;;;;;;;;5108352;28;20293;-79
2022/04/14 00:35:31;;;;;;;0.10;0.10;;;;;;;;;;5081288;28;20247;-79
2022/04/14 00:37:57;;;;;;;0.10;0.10;;;;;;;;;;5109975;28;20260;-80
2022/04/14 00:40:24;;;;;;;0.10;0.10;;;;;;;;;;5079448;28;20258;-79
2022/04/14 00:42:50;;;;;;;0.10;0.10;;;;;;;;;;5111957;28;20200;-79
2022/04/14 00:45:16;;;;;;;0.10;0.10;;;;;;;;;;5077611;28;20398;-79
2022/04/14 00:47:43;;;;;;;0.10;0.10;;;;;;;;;;5113769;28;20245;-80
2022/04/14 00:50:10;;;;;;;0.10;0.10;;;;;;;;;;5075580;28;20214;-78
2022/04/14 00:52:43;;;;;;;0.10;0.10;;;;;;;;;;5115680;28;20388;-79
2022/04/14 00:55:12;;;;;;;0.00;0.00;;;;;;;;;;5075721;28;20194;-79
2022/04/14 00:57:39;;;;;;;0.10;0.10;;;;;;;;;;5114722;28;20200;-79
2022/04/14 01:00:06;;;;;;;0.10;0.10;;;;;;;;;;5080876;28;20212;-78
2022/04/14 01:02:32;;;;;;;0.10;0.10;;;;;;;;;;5116763;28;20211;-78
2022/04/14 01:04:59;;;;;;;0.00;0.00;;;;;;;;;;5084263;28;20204;-78
2022/04/14 01:07:26;;;;;;;0.10;0.10;;;;;;;;;;5106487;28;20245;-79
2022/04/14 01:09:54;;;;;;;0.10;0.10;;;;;;;;;;5083905;28;20208;-80
2022/04/14 01:12:20;;;;;;;0.10;0.10;;;;;;;;;;5106364;28;20299;-79
2022/04/14 01:14:47;;;;;;;0.10;0.10;;;;;;;;;;5084053;28;20249;-79
2022/04/14 01:17:13;;;;;;;0.10;0.10;;;;;;;;;;5106385;28;20246;-79
2022/04/14 01:19:40;;;;;;;0.10;0.10;;;;;;;;;;5084184;28;20211;-79
2022/04/14 01:22:08;;;;;;;0.10;0.10;;;;;;;;;;5092220;28;20237;-79
2022/04/14 01:24:35;;;;;;;0.47;0.47;;;;;;;;;;5084056;28;20207;-80
2022/04/14 01:27:02;;;;;;;0.10;0.10;;;;;;;;;;5105291;28;20304;-79
2022/04/14 01:29:28;;;;;;;0.10;0.10;;;;;;;;;;5084407;28;20210;-80
2022/04/14 01:31:55;;;;;;;0.10;0.10;;;;;;;;;;5103143;28;20245;-80
2022/04/14 01:34:22;;;;;;;0.10;0.10;;;;;;;;;;5085825;28;20227;-79
2022/04/14 01:36:48;;;;;;;0.10;0.10;;;;;;;;;;5101154;28;20283;-79
2022/04/14 01:39:14;;;;;;;0.10;0.10;;;;;;;;;;5088224;28;20265;-79
2022/04/14 01:41:43;;;;;;;0.00;0.00;;;;;;;;;;5099200;28;20243;-79
2022/04/14 01:44:09;;;;;;;0.10;0.10;;;;;;;;;;5089828;28;20200;-80
2022/04/14 01:46:36;;;;;;;0.10;0.10;;;;;;;;;;5097582;28;20253;-79
2022/04/14 01:49:03;;;;;;;0.10;0.10;;;;;;;;;;5091491;28;20271;-79
2022/04/14 01:51:29;;;;;;;0.10;0.10;;;;;;;;;;5095698;28;20287;-79
2022/04/14 01:53:55;;;;;;;0.10;0.10;;;;;;;;;;5092521;28;20249;-79
2022/04/14 01:56:22;;;;;;;0.10;0.10;;;;;;;;;;5093721;28;20238;-79
2022/04/14 01:58:50;;;;;;;0.10;0.10;;;;;;;;;;5094805;28;20195;-78
2022/04/14 02:01:16;;;;;;;0.10;0.10;;;;;;;;;;5092150;28;20238;-79
2022/04/14 02:03:42;;;;;;;0.10;0.10;;;;;;;;;;5096511;28;20274;-79
2022/04/14 02:06:09;;;;;;;0.10;0.10;;;;;;;;;;5090023;28;20241;-80
2022/04/14 02:08:35;;;;;;;0.00;0.00;;;;;;;;;;5098163;28;20301;-80
2022/04/14 02:11:02;;;;;;;0.10;0.10;;;;;;;;;;5088129;28;20299;-79
2022/04/14 02:13:29;;;;;;;0.10;0.10;;;;;;;;;;5099806;28;20226;-79
2022/04/14 02:15:57;;;;;;;0.10;0.10;;;;;;;;;;5086299;28;20241;-80
2022/04/14 02:18:23;;;;;;;0.10;0.10;;;;;;;;;;5101620;28;20198;-79
2022/04/14 02:20:49;;;;;;;0.10;0.10;;;;;;;;;;5084959;28;20319;-79
2022/04/14 02:23:16;;;;;;;0.10;0.10;;;;;;;;;;5103340;28;20209;-80
2022/04/14 02:25:42;;;;;;;0.00;0.00;;;;;;;;;;5082486;28;20239;-79
2022/04/14 02:28:09;;;;;;;0.10;0.10;;;;;;;;;;5105626;28;20203;-79
2022/04/14 02:30:35;;;;;;;0.10;0.10;;;;;;;;;;5081029;28;20246;-79
2022/04/14 02:33:03;;;;;;;0.10;0.10;;;;;;;;;;5107231;28;20228;-79
2022/04/14 02:35:29;;;;;;;0.10;0.10;;;;;;;;;;5079172;28;20241;-79
2022/04/14 02:37:56;;;;;;;0.10;0.10;;;;;;;;;;5108365;28;20233;-78
2022/04/14 02:40:23;;;;;;;0.10;0.10;;;;;;;;;;5077036;28;20214;-79
2022/04/14 02:42:50;;;;;;;0.10;0.10;;;;;;;;;;5110156;28;20199;-79
2022/04/14 02:45:16;;;;;;;0.10;0.10;;;;;;;;;;5075487;28;20208;-78
2022/04/14 02:47:42;;;;;;;0.10;0.10;;;;;;;;;;5112034;28;20210;-80
2022/04/14 02:50:10;;;;;;;0.10;0.10;;;;;;;;;;5073350;28;20379;-79
2022/04/14 02:52:36;;;;;;;0.10;0.10;;;;;;;;;;5113680;28;20263;-79
2022/04/14 02:55:03;;;;;;;0.10;0.10;;;;;;;;;;5082768;28;20205;-79
2022/04/14 02:57:30;;;;;;;0.10;0.10;;;;;;;;;;5104840;28;20289;-79
2022/04/14 02:59:56;;;;;;;0.10;0.10;;;;;;;;;;5082727;28;20198;-80
2022/04/14 03:02:23;;;;;;;0.10;0.10;;;;;;;;;;5105866;28;20529;-80
2022/04/14 03:04:49;;;;;;;0.10;0.10;;;;;;;;;;5086909;28;20247;-79
2022/04/14 03:07:17;;;;;;;0.00;0.00;;;;;;;;;;5109109;28;20238;-79
2022/04/14 03:09:43;;;;;;;0.10;0.10;;;;;;;;;;5086572;28;20207;-79
2022/04/14 03:12:10;;;;;;;0.10;0.10;;;;;;;;;;5108746;28;20238;-79
2022/04/14 03:14:36;;;;;;;0.10;0.10;;;;;;;;;;5086592;28;20224;-79
2022/04/14 03:17:03;;;;;;;0.10;0.10;;;;;;;;;;5107996;28;20415;-80
2022/04/14 03:19:29;;;;;;;0.10;0.10;;;;;;;;;;5086752;28;20437;-79
2022/04/14 03:21:55;;;;;;;0.10;0.10;;;;;;;;;;5105927;28;20267;-80
2022/04/14 03:24:23;;;;;;;0.10;0.10;;;;;;;;;;5088832;28;20395;-79
2022/04/14 03:26:49;;;;;;;0.10;0.10;;;;;;;;;;5104048;28;20237;-78
2022/04/14 03:29:15;;;;;;;0.10;0.10;;;;;;;;;;5090130;28;20509;-78
2022/04/14 03:31:41;;;;;;;0.10;0.10;;;;;;;;;;5101592;28;20621;-78
2022/04/14 03:34:08;;;;;;;0.07;0.07;;;;;;;;;;5092345;28;20217;-79
2022/04/14 03:36:34;;;;;;;0.00;0.00;;;;;;;;;;5099586;28;20249;-80
2022/04/14 03:39:03;;;;;;;0.10;0.10;;;;;;;;;;5094109;28;20205;-79
2022/04/14 03:41:31;;;;;;;0.10;0.10;;;;;;;;;;5098702;28;20245;-79
2022/04/14 03:43:58;;;;;;;0.10;0.10;;;;;;;;;;5095263;28;20213;-80
2022/04/14 03:46:24;;;;;;;0.10;0.10;;;;;;;;;;5097132;28;20261;-79
2022/04/14 03:48:54;;;;;;;0.10;0.10;;;;;;;;;;5096729;28;20210;-80
2022/04/14 03:51:21;;;;;;;0.10;0.10;;;;;;;;;;5095765;28;20445;-78
2022/04/14 03:53:47;;;;;;;0.10;0.10;;;;;;;;;;5097407;28;20237;-79
2022/04/14 03:56:13;;;;;;;0.20;0.20;;;;;;;;;;5093936;28;20281;-79
2022/04/14 03:58:45;;;;;;;0.10;0.10;;;;;;;;;;5099623;28;20206;-78
2022/04/14 04:01:11;;;;;;;0.10;0.10;;;;;;;;;;5093151;28;20241;-78
2022/04/14 04:03:37;;;;;;;0.10;0.10;;;;;;;;;;5100152;28;20495;-79
2022/04/14 04:06:03;;;;;;;0.10;0.10;;;;;;;;;;5088151;28;20286;-78
2022/04/14 04:08:30;;;;;;;0.10;0.10;;;;;;;;;;5105109;28;20397;-80
2022/04/14 04:10:56;;;;;;;0.10;0.10;;;;;;;;;;5088969;28;20241;-78
2022/04/14 04:13:22;;;;;;;0.10;0.10;;;;;;;;;;5103577;28;20234;-79
2022/04/14 04:15:50;;;;;;;0.10;0.10;;;;;;;;;;5086590;28;20287;-78
2022/04/14 04:18:18;;;;;;;0.10;0.10;;;;;;;;;;5105790;28;20495;-79
2022/04/14 04:20:44;;;;;;;0.10;0.10;;;;;;;;;;5085325;28;20241;-80
2022/04/14 04:23:10;;;;;;;0.10;0.10;;;;;;;;;;5107094;28;20209;-79
2022/04/14 04:25:37;;;;;;;0.10;0.10;;;;;;;;;;5083250;28;20305;-79
2022/04/14 04:28:03;;;;;;;0.10;0.10;;;;;;;;;;5109103;28;20446;-80
2022/04/14 04:30:29;;;;;;;0.10;0.10;;;;;;;;;;5080993;28;20241;-80
2022/04/14 04:32:57;;;;;;;0.10;0.10;;;;;;;;;;5111070;28;20208;-80
2022/04/14 04:35:23;;;;;;;0.10;0.10;;;;;;;;;;5079592;28;20203;-79
2022/04/14 04:37:50;;;;;;;0.10;0.10;;;;;;;;;;5112454;28;20253;-79
2022/04/14 04:40:18;;;;;;;0.10;0.10;;;;;;;;;;5077339;28;20258;-79
2022/04/14 04:42:45;;;;;;;0.10;0.10;;;;;;;;;;5113875;28;20213;-80
2022/04/14 04:45:11;;;;;;;0.10;0.10;;;;;;;;;;5076245;28;20420;-80
2022/04/14 04:47:37;;;;;;;0.10;0.10;;;;;;;;;;5115702;28;20517;-79
2022/04/14 04:50:07;;;;;;;0.10;0.10;;;;;;;;;;5084505;28;20218;-79
2022/04/14 04:52:33;;;;;;;0.00;0.00;;;;;;;;;;5072920;28;20210;-81
2022/04/14 04:55:00;;;;;;;0.10;0.10;;;;;;;;;;5084762;28;20256;-80
2022/04/14 04:57:26;;;;;;;0.10;0.10;;;;;;;;;;5106881;28;20242;-80
2022/04/14 04:59:52;;;;;;;0.10;0.10;;;;;;;;;;5084693;28;20218;-80
2022/04/14 05:02:18;;;;;;;0.10;0.10;;;;;;;;;;5106955;28;20294;-78
2022/04/14 05:04:45;;;;;;;0.10;0.10;;;;;;;;;;5084588;28;20229;-78
2022/04/14 05:07:12;;;;;;;0.10;0.10;;;;;;;;;;5106615;28;20241;-79
2022/04/14 05:09:38;;;;;;;0.10;0.10;;;;;;;;;;5084164;28;20248;-79
2022/04/14 05:12:05;;;;;;;0.00;0.00;;;;;;;;;;5106312;28;20489;-79
2022/04/14 05:14:32;;;;;;;0.10;0.10;;;;;;;;;;5084205;28;20233;-80
2022/04/14 05:16:58;;;;;;;0.10;0.10;;;;;;;;;;5104252;28;20598;-79
2022/04/14 05:19:24;;;;;;;0.10;0.10;;;;;;;;;;5086047;28;20206;-79
2022/04/14 05:21:50;;;;;;;0.10;0.10;;;;;;;;;;5102278;28;20245;-79
2022/04/14 05:24:18;;;;;;;0.10;0.10;;;;;;;;;;5087867;28;20249;-79
2022/04/14 05:26:44;;;;;;;0.10;0.10;;;;;;;;;;5099909;28;20344;-78
2022/04/14 05:29:10;;;;;;;0.10;0.10;;;;;;;;;;5089648;28;20202;-79
2022/04/14 05:31:37;;;;;;;0.10;0.10;;;;;;;;;;5098477;28;20563;-79
2022/04/14 05:34:03;;;;;;;0.10;0.10;;;;;;;;;;5091123;28;20227;-79
2022/04/14 05:36:29;;;;;;;0.10;0.10;;;;;;;;;;5096267;28;20370;-79
2022/04/14 05:38:55;;;;;;;0.10;0.10;;;;;;;;;;5093364;28;20202;-79
2022/04/14 05:41:23;;;;;;;0.10;0.10;;;;;;;;;;5093884;28;20311;-79
2022/04/14 05:43:50;;;;;;;0.10;0.10;;;;;;;;;;5095219;28;20280;-79
2022/04/14 05:46:16;;;;;;;0.07;0.07;;;;;;;;;;5092422;28;20321;-79
2022/04/14 05:48:42;;;;;;;0.10;0.10;;;;;;;;;;5096885;28;20207;-79
2022/04/14 05:51:08;;;;;;;0.10;0.10;;;;;;;;;;5090421;28;20233;-79
2022/04/14 05:53:35;;;;;;;0.10;0.10;;;;;;;;;;5098758;28;20507;-79
2022/04/14 05:56:01;;;;;;;0.10;0.10;;;;;;;;;;5088730;28;20246;-78
2022/04/14 05:58:29;;;;;;;0.10;0.10;;;;;;;;;;5100448;28;20218;-78
2022/04/14 06:00:55;;;;;;;0.10;0.10;;;;;;;;;;5086218;28;20257;-79
2022/04/14 06:03:22;;;;;;;0.10;0.10;;;;;;;;;;5102749;28;20279;-79
2022/04/14 06:05:48;;;;;;;0.00;0.00;;;;;;;;;;5084703;28;20247;-79
2022/04/14 06:08:14;;;;;;;0.10;0.10;;;;;;;;;;5104044;28;20376;-78
2022/04/14 06:10:40;;;;;;;0.10;0.10;;;;;;;;;;5081997;28;20507;-79
2022/04/14 06:13:07;;;;;;;0.10;0.10;;;;;;;;;;5106053;28;20259;-80
2022/04/14 06:15:34;;;;;;;0.10;0.10;;;;;;;;;;5080058;28;20483;-78
2022/04/14 06:18:01;;;;;;;0.00;0.00;;;;;;;;;;5107414;28;20279;-78
2022/04/14 06:20:27;;;;;;;0.10;0.10;;;;;;;;;;5078604;28;20311;-78
2022/04/14 06:22:55;;;;;;;0.10;0.10;;;;;;;;;;5109423;28;20220;-79
2022/04/14 06:25:23;;;;;;;0.10;0.10;;;;;;;;;;5077041;28;20212;-78
2022/04/14 06:27:50;;;;;;;0.10;0.10;;;;;;;;;;5109914;28;20204;-77
2022/04/14 06:30:17;;;;;;;0.10;0.10;;;;;;;;;;5075818;28;20206;-78
2022/04/14 06:32:54;;;;;;;0.10;0.10;;;;;;;;;;5112033;28;20204;-78
2022/04/14 06:35:20;;;;;;;0.10;0.10;;;;;;;;;;5076623;28;20234;-78
2022/04/14 06:37:47;;;;;;;0.00;0.00;;;;;;;;;;5110880;28;20251;-80
2022/04/14 06:40:13;;;;;;;0.00;0.00;;;;;;;;;;5073801;28;20255;-77
2022/04/14 06:42:39;;;;;;;0.10;0.10;;;;;;;;;;5113720;28;20203;-78
2022/04/14 06:45:06;;;;;;;0.00;0.00;;;;;;;;;;5076559;28;20201;-78
2022/04/14 06:47:33;;;;;;;0.10;0.10;;;;;;;;;;5114608;28;20225;-77
2022/04/14 06:50:00;;;;;;;0.10;0.10;;;;;;;;;;5082553;28;20211;-78
2022/04/14 06:52:27;;;;;;;0.10;0.10;;;;;;;;;;5104730;28;20254;-78
2022/04/14 06:54:53;;;;;;;0.00;0.00;;;;;;;;;;5082474;28;20230;-78
2022/04/14 06:57:20;;;;;;;0.07;0.07;;;;;;;;;;5104953;28;20242;-79
2022/04/14 06:59:47;;;;;;;0.03;0.03;;;;;;;;;;5083097;28;20450;-78
2022/04/14 07:02:13;;;;;;;0.00;0.00;;;;;;;;;;5104960;28;20262;-77
2022/04/14 07:04:40;;;;;;;0.10;0.10;;;;;;;;;;5082618;28;20203;-78
2022/04/14 07:07:07;;;;;;;0.00;0.00;;;;;;;;;;5105159;28;20242;-77
2022/04/14 07:09:34;;;;;;;0.10;0.10;;;;;;;;;;5082812;28;20430;-77
2022/04/14 07:12:00;;;;;;;0.00;0.00;;;;;;;;;;5103383;28;20252;-78
2022/04/14 07:14:27;;;;;;;0.10;0.10;;;;;;;;;;5083502;28;20230;-77
2022/04/14 07:16:53;;;;;;;0.10;0.10;;;;;;;;;;5101660;28;20244;-79
2022/04/14 07:19:19;;;;;;;0.10;0.10;;;;;;;;;;5086101;28;20205;-78
2022/04/14 07:21:46;;;;;;;0.00;0.00;;;;;;;;;;5099403;28;20290;-77
2022/04/14 07:24:14;;;;;;;0.10;0.10;;;;;;;;;;5087566;28;20206;-77
2022/04/14 07:26:40;;;;;;;0.05;0.05;;;;;;;;;;5097662;28;20241;-78
2022/04/14 07:29:06;;;;;;;0.03;0.03;;;;;;;;;;5088904;28;20207;-79
2022/04/14 07:31:33;;;;;;;0.00;0.00;;;;;;;;;;5095403;28;20238;-82
2022/04/14 07:33:59;;;;;;;0.00;0.00;;;;;;;;;;5091592;28;20249;-80
2022/04/14 07:36:26;;;;;;;0.10;0.10;;;;;;;;;;5093730;28;20257;-80
2022/04/14 07:38:52;;;;;;;0.00;0.00;;;;;;;;;;5092626;28;20204;-79
2022/04/14 07:41:20;;;;;;;0.00;0.00;;;;;;;;;;5091742;28;20237;-79
2022/04/14 07:43:46;;;;;;;0.08;0.08;;;;;;;;;;5094675;28;20249;-79
2022/04/14 07:46:13;;;;;;;0.00;0.00;;;;;;;;;;5090369;28;20505;-78
2022/04/14 07:48:39;;;;;;;0.00;0.00;;;;;;;;;;5097208;28;20249;-78
2022/04/14 07:51:06;;;;;;;0.00;0.00;;;;;;;;;;5089963;28;20315;-78
2022/04/14 07:53:32;;;;;;;0.00;0.00;;;;;;;;;;5103848;28;20204;-73
2022/04/14 07:55:58;;;;;;;0.10;0.10;;;;;;;;;;5089824;28;20375;-73
2022/04/14 07:58:26;;;;;;;0.00;0.00;;;;;;;;;;5103540;28;20244;-72
2022/04/14 08:00:53;;;;;;;0.00;0.00;;;;;;;;;;5086441;28;20249;-73
2022/04/14 08:03:19;;;;;;;0.00;0.00;;;;;;;;;;5106914;28;20522;-72
2022/04/14 08:05:46;;;;;;;0.00;0.00;;;;;;;;;;5085591;28;20239;-72
2022/04/14 08:08:13;;;;;;;0.00;0.00;;;;;;;;;;5107840;28;20216;-72
2022/04/14 08:10:40;;;;;;;0.00;0.00;;;;;;;;;;5084623;28;20268;-71
2022/04/14 08:13:07;;;;;;;0.03;0.03;;;;;;;;;;5108459;28;20204;-72
2022/04/14 08:15:34;;;;;;;0.00;0.00;;;;;;;;;;5082573;28;20466;-74
2022/04/14 08:18:02;;;;;;;0.00;0.00;;;;;;;;;;5109981;28;20260;-74
2022/04/14 08:20:29;;;;;;;0.00;0.00;;;;;;;;;;5081218;28;20277;-73
2022/04/14 08:22:55;;;;;;;0.00;0.00;;;;;;;;;;5111405;28;20212;-73
2022/04/14 08:25:22;;;;;;;0.00;0.00;;;;;;;;;;5079566;28;20204;-73
2022/04/14 08:27:49;;;;;;;0.00;0.00;;;;;;;;;;5112933;28;20567;-73
2022/04/14 08:30:16;;;;;;;0.00;0.00;;;;;;;;;;5077474;28;20205;-75
2022/04/14 08:32:44;;;;;;;0.00;0.00;;;;;;;;;;5114483;28;20208;-74
2022/04/14 08:35:11;;;;;;;0.00;0.00;;;;;;;;;;5076198;28;20251;-74
2022/04/14 08:37:40;;;;;;;0.05;0.05;;;;;;;;;;5116320;28;20300;-72
2022/04/14 08:40:07;;;;;;;0.05;0.05;;;;;;;;;;5081720;28;20406;-73
2022/04/14 08:42:39;;;;;;;0.00;0.00;;;;;;;;;;5115260;28;20292;-72
2022/04/14 08:45:07;;;;;;;0.00;0.00;;;;;;;;;;5084990;28;20198;-73
2022/04/14 08:47:35;;;;;;;0.00;0.00;;;;;;;;;;5073107;28;20209;-72
2022/04/14 08:50:03;;;;;;;0.10;0.10;;;;;;;;;;5084485;28;20494;-73
2022/04/14 08:52:32;;;;;;;0.00;0.00;;;;;;;;;;5073129;28;20225;-73
2022/04/14 08:54:59;;;;;;;0.25;0.25;;;;;;;;;;5084727;28;20230;-73
2022/04/14 08:57:25;;;;;;;0.00;0.00;;;;;;;;;;5106590;28;20559;-73
2022/04/14 08:59:52;;;;;;;0.10;0.10;;;;;;;;;;5084511;28;20204;-74
2022/04/14 09:02:19;;;;;;;0.10;0.10;;;;;;;;;;5106665;28;20296;-75
2022/04/14 09:04:45;;;;;;;0.00;0.00;;;;;;;;;;5084072;28;20245;-74
2022/04/14 09:07:13;;;;;;;0.00;0.00;;;;;;;;;;5106574;28;20610;-73
2022/04/14 09:09:40;;;;;;;0.05;0.05;;;;;;;;;;5084472;28;20488;-78
2022/04/14 09:12:07;;;;;;;0.00;0.00;;;;;;;;;;5106344;28;20281;-78
2022/04/14 09:14:34;;;;;;;0.00;0.00;;;;;;;;;;5083851;28;20209;-78
2022/04/14 09:17:01;;;;;;;0.00;0.00;;;;;;;;;;5105200;28;20240;-79
2022/04/14 09:19:29;;;;;;;0.00;0.00;;;;;;;;;;5085274;28;20210;-79
2022/04/14 09:22:04;;;;;;;0.00;0.00;;;;;;;;;;5102729;28;20284;-79
2022/04/14 09:24:42;;;;;;;0.08;0.08;;;;;;;;;;5084788;28;20390;-80
2022/04/14 09:27:09;;;;;;;0.10;0.10;;;;;;;;;;5106428;28;20311;-80
2022/04/14 09:29:36;;;;;;;0.00;0.00;;;;;;;;;;5084238;28;20210;-81
2022/04/14 09:32:02;;;;;;;0.00;0.00;;;;;;;;;;5105246;28;20446;-81
2022/04/14 09:34:42;;;;;;;0.00;0.00;;;;;;;;;;5084310;28;20559;-80
2022/04/14 09:37:08;;;;;;;0.00;0.00;;;;;;;;;;5103305;28;20239;-81
2022/04/14 09:39:52;;;;;;;0.00;0.00;;;;;;;;;;5086313;28;20225;-82
2022/04/14 09:42:20;;;;;;;0.08;0.08;;;;;;;;;;5106280;28;20302;-81
2022/04/14 09:44:46;;;;;;;0.05;0.05;;;;;;;;;;5083616;28;20206;-80
2022/04/14 09:47:16;;;;;;;0.00;0.00;;;;;;;;;;5105868;28;20431;-81
2022/04/14 09:49:42;;;;;;;0.10;0.10;;;;;;;;;;5083825;28;20438;-83
2022/04/14 09:52:15;;;;;;;0.10;0.10;;;;;;;;;;5106264;28;20243;-79
2022/04/14 09:54:42;;;;;;;0.00;0.00;;;;;;;;;;5083727;28;20219;-80
2022/04/14 10:00:07;;;;;;;0.00;0.00;;;;;;;;;;5020957;28;20286;-81
2022/04/14 10:02:36;;;;;;;0.10;0.10;;;;;;;;;;4972674;28;20247;-78
2022/04/14 10:05:05;;;;;;;0.00;0.00;;;;;;;;;;4983065;28;20200;-77
2022/04/14 10:07:32;;;;;;;0.00;0.00;;;;;;;;;;4933199;28;20311;-79
2022/04/14 10:09:59;;;;;;;0.08;0.08;;;;;;;;;;4944131;29;20424;-76
2022/04/14 10:12:34;;;;;;;0.00;0.00;;;;;;;;;;4917867;29;20255;-79
2022/04/14 10:15:12;;;;;;;0.10;0.10;;;;;;;;;;4943994;29;20232;-79
2022/04/14 10:17:48;;;;;;;0.05;0.05;;;;;;;;;;4918538;29;20232;-78
2022/04/14 10:20:17;;;;;;;0.10;0.10;;;;;;;;;;4933008;29;20210;-79
2022/04/14 10:22:48;;;;;;;0.10;0.10;;;;;;;;;;4953839;28;20282;-81
2022/04/14 10:25:16;;;;;;;0.00;0.00;;;;;;;;;;4971899;28;20242;-79
2022/04/14 10:27:49;;;;;;;0.00;0.00;;;;;;;;;;5009259;28;20414;-79
2022/04/14 10:30:20;;;;;;;0.05;0.05;;;;;;;;;;5010534;28;20244;-80
2022/04/14 10:32:50;;;;;;;0.08;0.08;;;;;;;;;;5021532;28;20224;-78
2022/04/14 10:35:16;;;;;;;0.00;0.00;;;;;;;;;;5011043;28;20254;-79
2022/04/14 10:37:48;;;;;;;0.00;0.00;;;;;;;;;;5026881;28;20233;-79
2022/04/14 10:40:14;;;;;;;0.00;0.00;;;;;;;;;;5072777;28;20266;-79
2022/04/14 10:42:52;;;;;;;0.03;0.03;;;;;;;;;;5114388;28;20211;-80
2022/04/14 10:45:21;;;;;;;0.10;0.10;;;;;;;;;;5076253;28;20269;-79
2022/04/14 10:47:57;;;;;;;0.10;0.10;;;;;;;;;;5096135;28;20306;-78
2022/04/14 10:50:25;;;;;;;0.10;0.10;;;;;;;;;;5077738;28;20501;-78
2022/04/14 10:53:01;;;;;;;0.10;0.10;;;;;;;;;;5109489;28;20207;-77
2022/04/14 10:55:35;;;;;;;0.00;0.00;;;;;;;;;;5078704;28;20241;-78
2022/04/14 10:58:02;;;;;;;0.10;0.10;;;;;;;;;;5107090;28;20245;-79
2022/04/14 11:00:38;;;;;;;0.00;0.00;;;;;;;;;;5078983;28;20262;-80
2022/04/14 11:03:09;;;;;;;0.10;0.10;;;;;;;;;;5106453;28;20236;-79
2022/04/14 11:05:46;;;;;;;0.00;0.00;;;;;;;;;;5081116;28;20238;-78
2022/04/14 11:08:25;;;;;;;0.10;0.10;;;;;;;;;;5104109;28;20350;-78
2022/04/14 11:10:55;;;;;;;0.00;0.00;;;;;;;;;;5085549;28;20468;-79
2022/04/14 11:13:23;;;;;;;0.00;0.00;;;;;;;;;;5101826;28;20431;-78
2022/04/14 11:15:52;;;;;;;0.00;0.00;;;;;;;;;;5084221;28;20238;-80
2022/04/14 11:18:18;;;;;;;0.00;0.00;;;;;;;;;;5102014;28;20276;-77
2022/04/14 11:21:05;;;;;;;0.10;0.10;;;;;;;;;;5083205;28;20238;-78
2022/04/14 11:23:51;;;;;;;0.00;0.00;;;;;;;;;;5100001;28;20263;-79
2022/04/14 11:26:18;;;;;;;0.03;0.03;;;;;;;;;;5093983;28;20253;-78
2022/04/14 11:28:58;;;;;;;0.10;0.10;;;;;;;;;;5100427;28;20231;-77
2022/04/14 11:31:26;;;;;;;0.08;0.08;;;;;;;;;;5095133;28;20306;-76
2022/04/14 11:34:06;;;;;;;0.10;0.10;;;;;;;;;;5099585;28;20376;-76
2022/04/14 11:36:53;;;;;;;0.10;0.10;;;;;;;;;;5097667;28;20250;-78
2022/04/14 11:39:22;;;;;;;0.10;0.10;;;;;;;;;;5090387;28;20191;-78
2022/04/14 11:41:50;;;;;;;0.00;0.00;;;;;;;;;;5102738;28;20284;-77
2022/04/14 11:44:23;;;;;;;0.00;0.00;;;;;;;;;;5090606;28;20352;-79
2022/04/14 11:46:59;;;;;;;0.10;0.10;;;;;;;;;;5102722;28;20244;-80
2022/04/14 11:49:34;;;;;;;0.10;0.10;;;;;;;;;;5088698;28;20270;-77
2022/04/14 11:52:09;;;;;;;0.03;0.03;;;;;;;;;;5073678;28;20567;-78
2022/04/14 11:54:37;;;;;;;0.03;0.03;;;;;;;;;;5084716;28;20208;-77
2022/04/14 11:57:13;;;;;;;0.00;0.00;;;;;;;;;;5107307;28;20241;-81
2022/04/14 11:59:45;;;;;;;0.00;0.00;;;;;;;;;;5086406;28;20201;-78
2022/04/14 12:02:18;;;;;;;0.10;0.10;;;;;;;;;;5106894;28;20647;-78
2022/04/14 12:04:48;;;;;;;0.00;0.00;;;;;;;;;;5086163;28;20207;-78
2022/04/14 12:07:19;;;;;;;0.07;0.07;;;;;;;;;;5038607;28;20274;-79
2022/04/14 12:10:09;;;;;;;0.10;0.10;;;;;;;;;;5043813;28;20398;-78
2022/04/14 12:12:37;;;;;;;0.03;0.03;;;;;;;;;;4974970;28;20271;-78
2022/04/14 12:15:09;;;;;;;0.03;0.03;;;;;;;;;;4984456;28;20273;-78
2022/04/14 12:17:41;;;;;;;0.10;0.10;;;;;;;;;;4919223;28;20287;-78
2022/04/14 12:20:09;;;;;;;0.00;0.00;;;;;;;;;;4928024;29;20212;-77
2022/04/14 12:22:45;;;;;;;0.10;0.10;;;;;;;;;;4898324;29;20229;-78
2022/04/14 12:25:12;;;;;;;0.00;0.00;;;;;;;;;;4898495;29;20294;-79
2022/04/14 12:27:39;;;;;;;0.10;0.10;;;;;;;;;;4908724;29;20206;-78
2022/04/14 12:30:13;;;;;;;0.10;0.10;;;;;;;;;;4908335;29;20203;-77
2022/04/14 12:37:37;;;;;;;0.00;0.00;;;;;;;;;;4937272;28;20355;-78
2022/04/14 12:40:11;;;;;;;0.00;0.00;;;;;;;;;;4987212;28;20267;-79
2022/04/14 12:42:39;;;;;;;0.10;0.10;;;;;;;;;;5005881;28;20238;-77
2022/04/14 12:45:12;;;;;;;0.10;0.10;;;;;;;;;;5023162;28;20210;-77
2022/04/14 12:47:42;;;;;;;0.03;0.03;;;;;;;;;;4997492;28;20278;-76
2022/04/14 12:50:13;;;;;;;0.10;0.10;;;;;;;;;;5017694;28;20214;-78
2022/04/14 12:52:49;;;;;;;0.00;0.00;;;;;;;;;;4983925;28;20219;-77
2022/04/14 13:01:07;;;;;;;0.00;0.00;;;;;;;;;;4975944;28;20247;-78
2022/04/14 13:03:50;;;;;;;0.10;0.10;;;;;;;;;;5004061;28;20212;-78
2022/04/14 13:06:17;;;;;;;0.07;0.07;;;;;;;;;;5000611;28;20245;-78
2022/04/14 13:08:47;;;;;;;0.10;0.10;;;;;;;;;;5023085;28;20198;-78
2022/04/14 13:11:30;;;;;;;0.10;0.10;;;;;;;;;;5012909;28;20477;-78
2022/04/14 13:14:01;;;;;;;0.10;0.10;;;;;;;;;;5002853;28;20271;-80
2022/04/14 13:16:37;;;;;;;0.10;0.10;;;;;;;;;;4990599;28;20238;-79
2022/04/14 13:19:03;;;;;;;0.00;0.00;;;;;;;;;;5003080;28;20222;-78
2022/04/14 13:21:37;;;;;;;0.00;0.00;;;;;;;;;;4971225;28;20440;-78
2022/04/14 13:24:04;;;;;;;0.00;0.00;;;;;;;;;;4964042;29;20211;-78
2022/04/14 13:26:43;;;;;;;0.10;0.10;;;;;;;;;;4956110;28;20297;-79
2022/04/14 13:29:25;;;;;;;0.10;0.10;;;;;;;;;;4963844;29;20319;-78
2022/04/14 13:32:14;;;;;;;0.00;0.00;;;;;;;;;;4966843;28;20249;-79
2022/04/14 13:34:42;;;;;;;0.10;0.10;;;;;;;;;;5002569;28;20661;-79
2022/04/14 13:37:09;;;;;;;0.10;0.10;;;;;;;;;;4992406;28;20240;-79
2022/04/14 13:39:35;;;;;;;0.10;0.10;;;;;;;;;;5002221;28;20206;-78
2022/04/14 13:42:03;;;;;;;0.10;0.10;;;;;;;;;;4991971;28;20242;-77
2022/04/14 13:44:29;;;;;;;0.10;0.10;;;;;;;;;;5002190;28;20203;-78
2022/04/14 13:46:57;;;;;;;0.10;0.10;;;;;;;;;;5029024;28;20237;-77
2022/04/14 13:49:23;;;;;;;0.10;0.10;;;;;;;;;;5085070;28;20248;-77
2022/04/14 13:51:51;;;;;;;0.10;0.10;;;;;;;;;;5101731;28;20644;-77
2022/04/14 13:54:18;;;;;;;0.10;0.10;;;;;;;;;;5084367;28;20242;-75
2022/04/14 13:56:44;;;;;;;0.10;0.10;;;;;;;;;;5099969;28;20230;-76
2022/04/14 13:59:10;;;;;;;0.10;0.10;;;;;;;;;;5089431;28;20250;-76
2022/04/14 14:01:37;;;;;;;0.10;0.10;;;;;;;;;;5098150;28;20242;-76
2022/04/14 14:04:05;;;;;;;0.10;0.10;;;;;;;;;;5091295;28;20312;-77
2022/04/14 14:06:31;;;;;;;0.00;0.00;;;;;;;;;;5096426;28;20236;-78
2022/04/14 14:08:59;;;;;;;0.10;0.10;;;;;;;;;;5092768;28;20207;-78
2022/04/14 14:11:27;;;;;;;0.10;0.10;;;;;;;;;;5094631;28;20261;-76
2022/04/14 14:13:56;;;;;;;0.10;0.10;;;;;;;;;;5093759;28;20204;-77
2022/04/14 14:16:24;;;;;;;0.00;0.00;;;;;;;;;;5093672;28;20251;-75
2022/04/14 14:18:50;;;;;;;0.10;0.10;;;;;;;;;;5094393;28;20268;-74
2022/04/14 14:21:16;;;;;;;0.10;0.10;;;;;;;;;;5091892;28;20302;-73
2022/04/14 14:23:43;;;;;;;0.00;0.00;;;;;;;;;;5096371;28;20213;-74
2022/04/14 14:26:13;;;;;;;0.00;0.00;;;;;;;;;;5089940;28;20297;-75
2022/04/14 14:28:39;;;;;;;0.10;0.10;;;;;;;;;;5097478;28;20215;-72
2022/04/14 14:31:06;;;;;;;0.10;0.10;;;;;;;;;;5088802;28;20249;-71
2022/04/14 14:33:33;;;;;;;0.10;0.10;;;;;;;;;;5099029;28;20248;-72
2022/04/14 14:35:59;;;;;;;0.00;0.00;;;;;;;;;;5086958;28;20272;-72
2022/04/14 14:38:25;;;;;;;0.10;0.10;;;;;;;;;;5100496;28;20246;-73
2022/04/14 14:40:52;;;;;;;0.10;0.10;;;;;;;;;;5084890;28;20433;-73
2022/04/14 14:43:19;;;;;;;0.00;0.00;;;;;;;;;;5102669;28;20206;-72
2022/04/14 14:45:47;;;;;;;0.10;0.10;;;;;;;;;;5083278;28;20259;-74
2022/04/14 14:48:13;;;;;;;0.10;0.10;;;;;;;;;;5103693;28;20204;-73
2022/04/14 14:50:39;;;;;;;0.10;0.10;;;;;;;;;;5081445;28;20289;-72
2022/04/14 14:53:06;;;;;;;0.10;0.10;;;;;;;;;;5105782;28;20204;-74
2022/04/14 14:55:32;;;;;;;0.10;0.10;;;;;;;;;;5079553;28;20557;-73
2022/04/14 15:00:46;;;;;;;0.10;0.10;;;;;;;;;;5086462;28;20244;-74
2022/04/14 15:03:12;;;;;;;0.00;0.00;;;;;;;;;;5108620;28;20215;-73
2022/04/14 15:05:39;;;;;;;0.03;0.03;;;;;;;;;;5085566;28;20578;-73